Como, North Carolina
Current Conditions -  °F | °C
As of 12:15 PM on Thursday 27 Nov 2014 (Local Time) from KFKN Reporting Station
Overcast Overcast  
Wind Chill: 43°   Ceiling: 3100
Heat Index: 43°   Visibility: 5mi
Dew Point: 43°   Wind: 3mph
Humidity: 100%   Direction: 320°NW
Pressure: 30.03"   Gusts: NA
Location:  36.5°N, 77.01°W
Report Text: KFKN 271715Z AUTO 32003KT 5SM SCT005 BKN031 OVC040 06/06 A3003 RMK AO1
Loading
Personal Weather Stations






























Interactive Weather Map New forecast layout! Learn more

10-Day Weather Forecast

Advertisements
Track Severe Weather on mobile